Kamuela, Hawaii
Current Conditions -  °F | °C
As of 2:56 PM on Friday 24 Oct 2014 (Local Time) from PHSF Reporting Station
Clear Clear  
Wind Chill: 66°   Ceiling: Unl
Heat Index: 66°   Visibility: 10mi
Dew Point: 40°   Wind: 18mph
Humidity: 37%   Direction: 150°SSE
Pressure: 30.29"   Gusts: 26mph
Location:  19.97°N, 155.78°W
Report Text: PHSF 250056Z AUTO 15016G23KT 10SM CLR 19/04 A3029 RMK AO2 SLP148 T01910042 $
Loading
Personal Weather Stations






























Interactive Weather Map
Tropical Storm Tracking
New forecast layout! Learn more

10-Day Weather Forecast

Advertisements
Track Severe Weather on mobile